Shawano, WI (54166)

11:55 AM CST on December 07, 2016 (GMT -0600)
Willow Wood | | Change Station

Elev 810 ft 44.79 °N, 88.58 °W | Updated 4 minutes ago

Overcast
Overcast
23.2 °F
Feels Like 18 °F
N
4.3
Wind Variable Wind from NE
Gusts 10.6 mph

Today
High -- | Low -- °F
--% Chance of Precip.
Yesterday
High -- | Low -- °F
Precip. -- in
Pressure 29.91 in
Visibility 10.0 miles
Clouds Overcast 2200 ft
Windchill 18 °F
Dew Point 18 °F
Humidity 80%
Rainfall 0.00 in
Snow Depth Not available.
7:18 AM 4:13 PM
First Quarter, 54% visible
METAR KEZS 071735Z AUTO 24014G20KT 10SM OVC022 M04/M10 A2991 RMK AO2 T10401097
Pressure 29.91 in
Visibility 10.0 miles
Clouds Overcast 2200 ft
Windchill 18 °F
Dew Point 18 °F
Humidity 80%
Rainfall 0.00 in
Snow Depth Not available.
7:18 AM 4:13 PM
First Quarter, 54% visible
METAR KEZS 071735Z AUTO 24014G20KT 10SM OVC022 M04/M10 A2991 RMK AO2 T10401097

10-Day Weather Forecast

Almanac

Astronomy

Dec. 07, 2016 Rise Set
Actual Time
Civil Twilight
Nautical Twilight
Astronomical Twilight
Moon
Length of Visible Light
Length of Day
Tomorrow will be .
, % of the Moon is Illuminated

Today's Extremes

State Highs State Lows

Community

WunderPhotos

Upload Photos

1,956,156 photos uploaded!

WunderBlog® & News

Nearby

Air Quality

  Air Quality AQ Index Pollutant
Not available.

Snow Depth

Station Depth Elevation

Earthquake Activity

City Distance Mag. Time & Date
Minimum magnitude displayed is 2.5.

Coastal Water Temperatures

Place Temperature

Stations

Nearby Weather Stations

Station Location Temp. Windchill Dew Point Humidity Wind Precip. Elev Updated Type
                   

Watches & Warnings

There are currently no watches in effect.